LPE0021 SEQM-SEGU
Flight info
| Callsign | LPE0021 |
|---|---|
| Flight time | 0h 32m |
| Altitude | 24000 |
| Route | TEMOX3B TEMOX TEMOX2 |
| Aircraft | A320/M-SDE3FGHIRWY/LB1 |
Departure
| Time | 2026-04-26 05:12 |
|---|---|
| Airport | Mariscal Sucre International Airport (SEQM) |
Arrival
| Time | 2026-04-26 05:44 |
|---|---|
| Airport | José Joaquín de Olmedo International Airport (SEGU) |
| Time | Latitude | Longitude | Altitude | Speed | Heading |
|---|---|---|---|---|---|
| 2026-04-26 04:43 | -0.12462 | -78.35722 | 7884 ft | 0 kts | 268° |
| 2026-04-26 05:00 | -0.12462 | -78.35721 | 7886 ft | 0 kts | 268° |
| 2026-04-26 05:00 | -0.12462 | -78.35712 | 7886 ft | 2 kts | 268° |
| 2026-04-26 05:00 | -0.12459 | -78.35691 | 7886 ft | 3 kts | 240° |
| 2026-04-26 05:01 | -0.12443 | -78.35676 | 7885 ft | 0 kts | 171° |
| 2026-04-26 05:01 | -0.12441 | -78.35676 | 7885 ft | 0 kts | 171° |
| 2026-04-26 05:02 | -0.12457 | -78.35674 | 7886 ft | 8 kts | 173° |
| 2026-04-26 05:02 | -0.12502 | -78.35671 | 7889 ft | 4 kts | 178° |
| 2026-04-26 05:02 | -0.12520 | -78.35671 | 7890 ft | 0 kts | 178° |
| 2026-04-26 05:03 | -0.12516 | -78.35671 | 7890 ft | 0 kts | 178° |
| 2026-04-26 05:03 | -0.12635 | -78.35667 | 7897 ft | 21 kts | 178° |
| 2026-04-26 05:03 | -0.12744 | -78.35603 | 7901 ft | 16 kts | 172° |
| 2026-04-26 05:03 | -0.12840 | -78.35596 | 7908 ft | 10 kts | 178° |
| 2026-04-26 05:04 | -0.12901 | -78.35593 | 7911 ft | 6 kts | 177° |
| 2026-04-26 05:04 | -0.12942 | -78.35591 | 7914 ft | 6 kts | 178° |
| 2026-04-26 05:04 | -0.13007 | -78.35589 | 7918 ft | 11 kts | 178° |
| 2026-04-26 05:04 | -0.13087 | -78.35586 | 7922 ft | 9 kts | 178° |
| 2026-04-26 05:05 | -0.13162 | -78.35583 | 7926 ft | 11 kts | 176° |
| 2026-04-26 05:05 | -0.13251 | -78.35579 | 7932 ft | 13 kts | 176° |
| 2026-04-26 05:05 | -0.13412 | -78.35572 | 7941 ft | 27 kts | 177° |
| 2026-04-26 05:05 | -0.13584 | -78.35564 | 7951 ft | 22 kts | 178° |
| 2026-04-26 05:06 | -0.13725 | -78.35558 | 7958 ft | 17 kts | 177° |
| 2026-04-26 05:06 | -0.13845 | -78.35553 | 7963 ft | 21 kts | 178° |
| 2026-04-26 05:06 | -0.13994 | -78.35547 | 7971 ft | 20 kts | 178° |
| 2026-04-26 05:06 | -0.14121 | -78.35541 | 7977 ft | 15 kts | 177° |
| 2026-04-26 05:07 | -0.14219 | -78.35530 | 7982 ft | 12 kts | 155° |
| 2026-04-26 05:07 | -0.14248 | -78.35501 | 7984 ft | 0 kts | 112° |
| 2026-04-26 05:08 | -0.14250 | -78.35497 | 7985 ft | 4 kts | 111° |
| 2026-04-26 05:08 | -0.14255 | -78.35468 | 7986 ft | 3 kts | 93° |
| 2026-04-26 05:09 | -0.14255 | -78.35445 | 7986 ft | 3 kts | 89° |
| 2026-04-26 05:09 | -0.14255 | -78.35422 | 7987 ft | 5 kts | 87° |
| 2026-04-26 05:09 | -0.14245 | -78.35384 | 7987 ft | 6 kts | 71° |
| 2026-04-26 05:09 | -0.14207 | -78.35366 | 7986 ft | 6 kts | 1° |
| 2026-04-26 05:10 | -0.14206 | -78.35366 | 7986 ft | 0 kts | 1° |
| 2026-04-26 05:10 | -0.14205 | -78.35366 | 7986 ft | 0 kts | 1° |
| 2026-04-26 05:11 | -0.14200 | -78.35366 | 7986 ft | 3 kts | 1° |
| 2026-04-26 05:11 | -0.14114 | -78.35368 | 7981 ft | 46 kts | 357° |
| 2026-04-26 05:11 | -0.13494 | -78.35395 | 7949 ft | 126 kts | 357° |
| 2026-04-26 05:11 | -0.12379 | -78.35442 | 7919 ft | 188 kts | 358° |
| 2026-04-26 05:12 | -0.11041 | -78.35489 | 8528 ft | 195 kts | 360° |
| 2026-04-26 05:12 | -0.09689 | -78.35458 | 9184 ft | 193 kts | 1° |
| 2026-04-26 05:12 | -0.08350 | -78.35481 | 9765 ft | 195 kts | 358° |
| 2026-04-26 05:12 | -0.06959 | -78.35566 | 10250 ft | 204 kts | 355° |
| 2026-04-26 05:13 | -0.05486 | -78.35676 | 10613 ft | 220 kts | 356° |
| 2026-04-26 05:13 | -0.03891 | -78.35772 | 10973 ft | 237 kts | 356° |
| 2026-04-26 05:13 | -0.02241 | -78.36183 | 11289 ft | 256 kts | 328° |
| 2026-04-26 05:13 | -0.00990 | -78.37515 | 11605 ft | 275 kts | 296° |
| 2026-04-26 05:14 | -0.00575 | -78.39435 | 11917 ft | 295 kts | 266° |
| 2026-04-26 05:14 | -0.00915 | -78.41482 | 12261 ft | 312 kts | 259° |
| 2026-04-26 05:14 | -0.01362 | -78.43660 | 12715 ft | 323 kts | 259° |
| 2026-04-26 05:14 | -0.01795 | -78.45847 | 13329 ft | 327 kts | 260° |
| 2026-04-26 05:15 | -0.02220 | -78.48096 | 13970 ft | 330 kts | 260° |
| 2026-04-26 05:15 | -0.02635 | -78.50360 | 14543 ft | 334 kts | 260° |
| 2026-04-26 05:15 | -0.03049 | -78.52665 | 15067 ft | 338 kts | 260° |
| 2026-04-26 05:15 | -0.03464 | -78.54987 | 15607 ft | 341 kts | 260° |
| 2026-04-26 05:16 | -0.03885 | -78.57313 | 16141 ft | 343 kts | 258° |
| 2026-04-26 05:16 | -0.04680 | -78.59564 | 16597 ft | 347 kts | 241° |
| 2026-04-26 05:16 | -0.06098 | -78.61509 | 17099 ft | 348 kts | 226° |
| 2026-04-26 05:16 | -0.07808 | -78.63200 | 17627 ft | 349 kts | 223° |
| 2026-04-26 05:17 | -0.09572 | -78.64883 | 18111 ft | 352 kts | 223° |
| 2026-04-26 05:17 | -0.11362 | -78.66592 | 18576 ft | 355 kts | 223° |
| 2026-04-26 05:17 | -0.13139 | -78.68305 | 19028 ft | 358 kts | 223° |
| 2026-04-26 05:17 | -0.14931 | -78.70046 | 19442 ft | 362 kts | 223° |
| 2026-04-26 05:18 | -0.16749 | -78.71815 | 19881 ft | 365 kts | 224° |
| 2026-04-26 05:18 | -0.18552 | -78.73574 | 20303 ft | 367 kts | 224° |
| 2026-04-26 05:18 | -0.20384 | -78.75364 | 20744 ft | 370 kts | 224° |
| 2026-04-26 05:18 | -0.22246 | -78.77187 | 21165 ft | 372 kts | 224° |
| 2026-04-26 05:19 | -0.24099 | -78.79002 | 21558 ft | 375 kts | 224° |
| 2026-04-26 05:19 | -0.25960 | -78.80826 | 21965 ft | 378 kts | 224° |
| 2026-04-26 05:19 | -0.27846 | -78.82672 | 22360 ft | 381 kts | 224° |
| 2026-04-26 05:19 | -0.29751 | -78.84537 | 22802 ft | 383 kts | 224° |
| 2026-04-26 05:20 | -0.31669 | -78.86417 | 23211 ft | 385 kts | 224° |
| 2026-04-26 05:20 | -0.33599 | -78.88309 | 23567 ft | 389 kts | 224° |
| 2026-04-26 05:20 | -0.35532 | -78.90202 | 23952 ft | 392 kts | 223° |
| 2026-04-26 05:20 | -0.37491 | -78.92120 | 24264 ft | 396 kts | 223° |
| 2026-04-26 05:21 | -0.39475 | -78.94064 | 24305 ft | 396 kts | 223° |
| 2026-04-26 05:21 | -0.41451 | -78.95998 | 24306 ft | 396 kts | 223° |
| 2026-04-26 05:21 | -0.43407 | -78.97916 | 24301 ft | 395 kts | 223° |
| 2026-04-26 05:21 | -0.45386 | -78.99855 | 24314 ft | 396 kts | 223° |
| 2026-04-26 05:22 | -0.47351 | -79.01778 | 24318 ft | 396 kts | 223° |
| 2026-04-26 05:22 | -0.49310 | -79.03700 | 24311 ft | 396 kts | 223° |
| 2026-04-26 05:22 | -0.51273 | -79.05623 | 24304 ft | 396 kts | 223° |
| 2026-04-26 05:22 | -0.53261 | -79.07568 | 24307 ft | 395 kts | 223° |
| 2026-04-26 05:23 | -0.55212 | -79.09480 | 24296 ft | 396 kts | 223° |
| 2026-04-26 05:23 | -0.57238 | -79.11383 | 24280 ft | 396 kts | 218° |
| 2026-04-26 05:23 | -0.59436 | -79.12998 | 24263 ft | 394 kts | 211° |
| 2026-04-26 05:23 | -0.61833 | -79.14318 | 24252 ft | 392 kts | 204° |
| 2026-04-26 05:24 | -0.64310 | -79.15483 | 24239 ft | 391 kts | 203° |
| 2026-04-26 05:24 | -0.66786 | -79.16617 | 24245 ft | 391 kts | 202° |
| 2026-04-26 05:24 | -0.69291 | -79.17766 | 24225 ft | 393 kts | 202° |
| 2026-04-26 05:24 | -0.71762 | -79.18902 | 24212 ft | 392 kts | 202° |
| 2026-04-26 05:25 | -0.74265 | -79.20058 | 24219 ft | 393 kts | 203° |
| 2026-04-26 05:25 | -0.76764 | -79.21214 | 24211 ft | 392 kts | 203° |
| 2026-04-26 05:25 | -0.79221 | -79.22354 | 24200 ft | 392 kts | 203° |
| 2026-04-26 05:25 | -0.81705 | -79.23507 | 24174 ft | 391 kts | 203° |
| 2026-04-26 05:26 | -0.84180 | -79.24657 | 23939 ft | 389 kts | 203° |
| 2026-04-26 05:26 | -0.86650 | -79.25806 | 23152 ft | 396 kts | 203° |
| 2026-04-26 05:26 | -0.89178 | -79.26978 | 22373 ft | 401 kts | 204° |
| 2026-04-26 05:26 | -0.91697 | -79.28149 | 21841 ft | 399 kts | 203° |
| 2026-04-26 05:27 | -0.94202 | -79.29314 | 21351 ft | 396 kts | 203° |
| 2026-04-26 05:27 | -0.96694 | -79.30473 | 20898 ft | 392 kts | 203° |
| 2026-04-26 05:27 | -0.99187 | -79.31634 | 20423 ft | 389 kts | 204° |
| 2026-04-26 05:27 | -1.01642 | -79.32774 | 19950 ft | 386 kts | 204° |
| 2026-04-26 05:28 | -1.04054 | -79.33896 | 19497 ft | 383 kts | 204° |
| 2026-04-26 05:28 | -1.06457 | -79.35014 | 19021 ft | 380 kts | 204° |
| 2026-04-26 05:28 | -1.08874 | -79.36137 | 18468 ft | 381 kts | 204° |
| 2026-04-26 05:28 | -1.11268 | -79.37251 | 17981 ft | 380 kts | 204° |
| 2026-04-26 05:29 | -1.13663 | -79.38364 | 17506 ft | 378 kts | 204° |
| 2026-04-26 05:29 | -1.16074 | -79.39485 | 17056 ft | 374 kts | 204° |
| 2026-04-26 05:29 | -1.18416 | -79.40575 | 16650 ft | 371 kts | 204° |
| 2026-04-26 05:29 | -1.20748 | -79.41660 | 16186 ft | 368 kts | 204° |
| 2026-04-26 05:30 | -1.23071 | -79.42741 | 15750 ft | 366 kts | 204° |
| 2026-04-26 05:30 | -1.25389 | -79.43818 | 15314 ft | 365 kts | 204° |
| 2026-04-26 05:30 | -1.27711 | -79.44897 | 14844 ft | 363 kts | 204° |
| 2026-04-26 05:30 | -1.29982 | -79.45954 | 14365 ft | 361 kts | 204° |
| 2026-04-26 05:31 | -1.32252 | -79.47009 | 13922 ft | 357 kts | 204° |
| 2026-04-26 05:31 | -1.34514 | -79.48061 | 13495 ft | 354 kts | 204° |
| 2026-04-26 05:31 | -1.36726 | -79.49091 | 13126 ft | 351 kts | 204° |
| 2026-04-26 05:31 | -1.38941 | -79.50120 | 12700 ft | 351 kts | 204° |
| 2026-04-26 05:32 | -1.41165 | -79.51155 | 12189 ft | 349 kts | 204° |
| 2026-04-26 05:32 | -1.43361 | -79.52177 | 11765 ft | 346 kts | 204° |
| 2026-04-26 05:32 | -1.45551 | -79.53197 | 11362 ft | 342 kts | 205° |
| 2026-04-26 05:32 | -1.47691 | -79.54192 | 10962 ft | 339 kts | 205° |
| 2026-04-26 05:33 | -1.49825 | -79.55184 | 10505 ft | 335 kts | 205° |
| 2026-04-26 05:33 | -1.51934 | -79.56165 | 10144 ft | 328 kts | 205° |
| 2026-04-26 05:33 | -1.53975 | -79.57115 | 10096 ft | 314 kts | 205° |
| 2026-04-26 05:33 | -1.55954 | -79.58036 | 9757 ft | 312 kts | 205° |
| 2026-04-26 05:34 | -1.57906 | -79.58943 | 9446 ft | 307 kts | 205° |
| 2026-04-26 05:34 | -1.59841 | -79.59843 | 9084 ft | 305 kts | 205° |
| 2026-04-26 05:34 | -1.61752 | -79.60731 | 8614 ft | 306 kts | 205° |
| 2026-04-26 05:34 | -1.63706 | -79.61641 | 8248 ft | 304 kts | 205° |
| 2026-04-26 05:35 | -1.65615 | -79.62528 | 7904 ft | 300 kts | 205° |
| 2026-04-26 05:35 | -1.67507 | -79.63407 | 7558 ft | 299 kts | 205° |
| 2026-04-26 05:35 | -1.69415 | -79.64294 | 7165 ft | 300 kts | 205° |
| 2026-04-26 05:35 | -1.71306 | -79.65173 | 6775 ft | 297 kts | 205° |
| 2026-04-26 05:36 | -1.73193 | -79.66051 | 6389 ft | 297 kts | 205° |
| 2026-04-26 05:36 | -1.75065 | -79.66921 | 6057 ft | 295 kts | 205° |
| 2026-04-26 05:36 | -1.76914 | -79.67783 | 5709 ft | 293 kts | 205° |
| 2026-04-26 05:36 | -1.78755 | -79.68639 | 5378 ft | 289 kts | 205° |
| 2026-04-26 05:37 | -1.80568 | -79.69482 | 5004 ft | 289 kts | 205° |
| 2026-04-26 05:37 | -1.82400 | -79.70335 | 4634 ft | 287 kts | 205° |
| 2026-04-26 05:37 | -1.84201 | -79.71173 | 4333 ft | 284 kts | 205° |
| 2026-04-26 05:37 | -1.85996 | -79.72008 | 3977 ft | 283 kts | 205° |
| 2026-04-26 05:38 | -1.87787 | -79.72841 | 3618 ft | 281 kts | 205° |
| 2026-04-26 05:38 | -1.89541 | -79.73656 | 3509 ft | 269 kts | 205° |
| 2026-04-26 05:38 | -1.91201 | -79.74429 | 3509 ft | 253 kts | 204° |
| 2026-04-26 05:38 | -1.92751 | -79.75152 | 3508 ft | 238 kts | 206° |
| 2026-04-26 05:39 | -1.94178 | -79.75922 | 3404 ft | 231 kts | 209° |
| 2026-04-26 05:39 | -1.95560 | -79.76720 | 3241 ft | 224 kts | 210° |
| 2026-04-26 05:39 | -1.96874 | -79.77484 | 3137 ft | 215 kts | 210° |
| 2026-04-26 05:39 | -1.98157 | -79.78229 | 3106 ft | 205 kts | 210° |
| 2026-04-26 05:40 | -1.99355 | -79.78922 | 3028 ft | 192 kts | 209° |
| 2026-04-26 05:40 | -2.00502 | -79.79584 | 2800 ft | 188 kts | 209° |
| 2026-04-26 05:40 | -2.01623 | -79.80230 | 2581 ft | 182 kts | 209° |
| 2026-04-26 05:40 | -2.02707 | -79.80855 | 2389 ft | 176 kts | 209° |
| 2026-04-26 05:41 | -2.03717 | -79.81437 | 2342 ft | 160 kts | 209° |
| 2026-04-26 05:41 | -2.04689 | -79.81998 | 2358 ft | 159 kts | 209° |
| 2026-04-26 05:41 | -2.05647 | -79.82549 | 2409 ft | 160 kts | 209° |
| 2026-04-26 05:41 | -2.06621 | -79.83109 | 2309 ft | 160 kts | 209° |
| 2026-04-26 05:42 | -2.07562 | -79.83664 | 2002 ft | 157 kts | 210° |
| 2026-04-26 05:42 | -2.08497 | -79.84229 | 1638 ft | 158 kts | 210° |
| 2026-04-26 05:42 | -2.09447 | -79.84784 | 1301 ft | 156 kts | 208° |
| 2026-04-26 05:42 | -2.10413 | -79.85297 | 1094 ft | 155 kts | 207° |
| 2026-04-26 05:43 | -2.11309 | -79.85805 | 865 ft | 147 kts | 210° |
| 2026-04-26 05:43 | -2.12182 | -79.86311 | 620 ft | 142 kts | 210° |
| 2026-04-26 05:43 | -2.13049 | -79.86807 | 484 ft | 138 kts | 210° |
| 2026-04-26 05:43 | -2.13903 | -79.87309 | 278 ft | 141 kts | 211° |
| 2026-04-26 05:44 | -2.14765 | -79.87804 | 133 ft | 139 kts | 211° |
| 2026-04-26 05:44 | -2.15562 | -79.88264 | 30 ft | 123 kts | 211° |
| 2026-04-26 05:44 | -2.16054 | -79.88548 | 33 ft | 52 kts | 210° |
| 2026-04-26 05:44 | -2.16347 | -79.88715 | 33 ft | 30 kts | 210° |
| 2026-04-26 05:45 | -2.16526 | -79.88820 | 32 ft | 29 kts | 210° |
| 2026-04-26 05:45 | -2.16691 | -79.88913 | 30 ft | 21 kts | 211° |
| 2026-04-26 05:45 | -2.16714 | -79.88981 | 30 ft | 0 kts | 302° |
| 2026-04-26 05:45 | -2.16711 | -79.88985 | 30 ft | 1 kts | 302° |
| 2026-04-26 05:46 | -2.16708 | -79.88989 | 30 ft | 0 kts | 302° |
| 2026-04-26 05:46 | -2.16708 | -79.88990 | 30 ft | 0 kts | 302° |
| 2026-04-26 05:47 | -2.16702 | -79.88998 | 30 ft | 2 kts | 302° |
| 2026-04-26 05:47 | -2.16690 | -79.89010 | 30 ft | 2 kts | 339° |
| 2026-04-26 05:47 | -2.16666 | -79.89009 | 30 ft | 3 kts | 15° |
| 2026-04-26 05:47 | -2.16642 | -79.88996 | 30 ft | 4 kts | 32° |
| 2026-04-26 05:48 | -2.16612 | -79.88978 | 31 ft | 5 kts | 31° |
| 2026-04-26 05:48 | -2.16577 | -79.88957 | 31 ft | 5 kts | 31° |
| 2026-04-26 05:48 | -2.16537 | -79.88934 | 31 ft | 7 kts | 28° |
| 2026-04-26 05:48 | -2.16491 | -79.88909 | 32 ft | 7 kts | 30° |
| 2026-04-26 05:49 | -2.16441 | -79.88880 | 32 ft | 8 kts | 31° |
| 2026-04-26 05:49 | -2.16324 | -79.88811 | 33 ft | 10 kts | 30° |
| 2026-04-26 05:49 | -2.16255 | -79.88773 | 33 ft | 11 kts | 30° |
| 2026-04-26 05:50 | -2.16181 | -79.88730 | 33 ft | 12 kts | 30° |
| 2026-04-26 05:50 | -2.16102 | -79.88684 | 33 ft | 13 kts | 30° |
| 2026-04-26 05:50 | -2.16016 | -79.88635 | 33 ft | 14 kts | 30° |
| 2026-04-26 05:50 | -2.15924 | -79.88582 | 32 ft | 15 kts | 30° |
| 2026-04-26 05:51 | -2.15825 | -79.88525 | 31 ft | 16 kts | 30° |
| 2026-04-26 05:51 | -2.15727 | -79.88469 | 31 ft | 13 kts | 28° |
| 2026-04-26 05:51 | -2.15660 | -79.88464 | 30 ft | 9 kts | 308° |
| 2026-04-26 05:51 | -2.15628 | -79.88516 | 31 ft | 0 kts | 301° |